Hlavní strana
METAR-TAF:

METAR-TAF

Letiště :

Schwäbisch Hall, Německo

zeměpisná šířka: 49-07-06N, zeměpisná délka: 9-47-02E, výška: 398 m

Aktuální stav počasí

Zpráva byla vytvořena před 50 minutami, v 17:20 UTC
Východní vítr 15 kt
Teplota 4°C
Vlhkost vzduchu 60%
Tlak 1027 hPa
Viditelnost 10 km a více
Žádná oblačnost pod 1500 m, nevyskytují se cumulonimby.

METAR: EDTY 171720Z 08015KT CAVOK 04/M03 Q1027

Čas: 19:10 (18:10 UTC)

Předpověď počasí

Zpráva byla vytvořena před 1 hodinou a 10 minutami, v 17:00 UTC
Předpověď platná od 17 v 18 UTC do 18 v 03 UTC
Východní vítr 13 kt
Viditelnost 10 km a více
Žádná oblačnost pod 1500 m, nevyskytují se cumulonimby.
Změna
od 17 v 19 UTC do 17 v 21 UTC
Východoseverovýchodní vítr 8 kt

TAF: EDTY 171700Z 1718/1803 09013KT CAVOK BECMG 1719/1721 06008KT

Stav a předpovědi počasí z více než 4 000 letišť (zprávy METAR a TAF).

Červené a žluté tečky na mapě představují dostupné meteorologické stanice.

Když kurzor umístíte na tečku, zobrazí se název stanice.

Pak kliknutím zobrazíte stav a předpověď počasí.

Chcete-li změnit mapu, kliknutím na zelené tlačítko se znaménkem +mapu přiblížíte, kliknutím na zelené tlačítko se znaménkem – mapu oddálíte a kliknutím na zelené šipky přejdete na sousední mapy.


METAR-TAF: